If you wish to contribute or participate in the discussions about articles you are invited to join SKYbrary as a registered user

 Actions

Kochi Airport

From SKYbrary Wiki

RJOK
Airport
ICAO: RJOK – IATA: KCZ
Summary
Name Kochi Airport
Region Asia and Pacific
Territory Japan JP.gif
Location Nankoku, Kochi Prefecture
Serving Kochi
Elevation 8.839 m
29 ft8.839 m
Coordinates 33° 32' 50.97" N, 133° 40' 26.96" E
Runways
Designator Length Width Surface ROPS
14/32 2500 m8,202.1 ft
45 m147.638 ft
ASP yes/yes


METAR
Observation RJOK 252300Z 28007KT 260V320 9999 FEW015 SCT035 22/14 Q1004
Station Kochi Airport
Date/Time 25 April 2019 23:00:00
Wind direction 280°
Wind speed 07 kts
Lowest cloud amount few clouds
Temperature 22°C
Dew point 14°C
Humidity 60%
QNH 1004 hPa
Weather condition n/a

Kōchi Airport, also known as Kōchi Ryōma Airport, is a regional airport in Nankoku, a city in Kōchi Prefecture of Japan. It is located on the southeastern coast, 13km7.019 nm
13,000 m
42,650.919 ft
east of the city of Kōchi.

Climatology

Humid Sub-tropical climate (Köppen climate classification Cfa)

Maps

Terrain

Loading map...

Airport Layout

Loading map...


Accidents & Serious Incidents at or in vicinity of RJOK

None on SKYbrary